Detall de PIREP

Printer-friendly versionPDF version

[2012/10/20 14:16:00]
Flight IATA:CT0001
Pilot Number:012
Company ICAO:CAT
Aircraft Type:A343/E
PAX:295
Departing Airport: LERS
Destination Airport: LEPA
Alternate Airport:LEBL
Online: VATSIM
Route:GARBI B31 TOLSO
Flight Level:F170
No Slew and time accel
No pause
Crash detect
Detect pilot in Cockpit between each 30 and 45 minutes
14:16 Zero fuel Weight: 346636 Lbs, Fuel Weight: 75306 Lbs
14:16 VATSIM:LERS 201400Z 07010KT 050V110 5000 -RA FEW010 BKN018 FEW020TCU 21/19 Q1009
14:16 VATSIM:LEPA 201400Z 19012KT 150V230 9999 FEW028 27/18 Q1010 NOSIG
14:16 VOICE CATALONIAN
14:17 Parking Brakes off
14:20 Take-off
14:20 Take off Weight: 420838 Lbs
14:20 Wind: 081º @ 010 Knots Heading: 070º
14:20 POS N41º 09´ 07´´ E001º 11´ 00´´
14:20 Gear Up: 201 Knots
14:20 Flaps:2 at 201 Knots
14:20 Flaps:0 at 215 Knots
14:25 TOC
14:25 Fuel Weight: 71304 Lb
14:34 TOD
14:34 Fuel Weight: 68853 Lb
14:35 Wind:170º@042 Knots Heading: 165º Ground Speed: 351 Knots Altitude 16561 ft
14:49 Flaps:1 at 227 Knots
14:50 Wind:169º@009 Knots Heading: 241º Ground Speed: 200 Knots Altitude 3011 ft
14:50 Flaps:3 at 188 Knots
14:50 Flaps:4 at 160 Knots
14:50 Gear Down: 153 Knots
14:50 Flaps:5 at 148 Knots
14:54 TouchDown:Rate -95 ft/min Speed: 133 Knots
14:54 Flaps:4 at 77 Knots
14:54 Flaps:0 at 76 Knots
14:54 VATSIM:LEPA 201430Z 20012G22KT 170V230 9999 FEW020 SCT070 25/20 Q1010 NOSIG
14:54 Land
14:54 Wind:181º@012 Knots
14:54 Heading: 236º
14:54 Flight Duration: 00:34
14:54 Landing Weight: 413488 Lbs
14:54 POS N39º 32´ 57´´ E002º 44´ 56´´
14:56 Parking brakes on
14:56 Block to Block Duration: 00:39
14:56 Final Fuel: 66585 Lbls
14:56 Spent Fuel: 8721 Lbls
14:56 Flight Length: 158 NM
14:56 TOD Land Length: 80 NM

Exportar CSV

Powered by Drupal - Modified by Danger4k